createdAt,value
2022-11-27T00:02:29.672Z,6.27
2022-11-27T00:07:34.861Z,6.55
2022-11-27T00:12:42.362Z,6.38
2022-11-27T00:17:47.499Z,6.48
2022-11-27T00:22:52.419Z,6.77
2022-11-27T00:28:00.047Z,6.79
2022-11-27T00:33:04.911Z,6.32
2022-11-27T00:38:09.813Z,6.16
2022-11-27T00:43:17.320Z,6.14
2022-11-27T00:48:22.528Z,6.19
2022-11-27T00:53:28.253Z,6.53
2022-11-27T00:58:37.724Z,6.64
2022-11-27T01:03:42.766Z,6.72
2022-11-27T01:08:47.972Z,6.70
2022-11-27T01:13:56.027Z,6.53
2022-11-27T01:19:02.816Z,6.47
2022-11-27T01:24:09.162Z,6.02
2022-11-27T01:29:16.822Z,6.07
2022-11-27T01:34:22.048Z,6.27
2022-11-27T01:39:27.036Z,6.50
2022-11-27T01:44:54.275Z,5.71
2022-11-27T01:50:05.696Z,5.68
2022-11-27T01:55:18.980Z,5.85
2022-11-27T02:00:27.660Z,5.63
2022-11-27T02:05:33.630Z,5.39
2022-11-27T02:10:49.867Z,5.16
2022-11-27T02:16:05.555Z,5.19
2022-11-27T02:21:16.765Z,5.43
2022-11-27T02:27:03.921Z,4.87
2022-11-27T02:32:18.000Z,4.89
2022-11-27T02:37:30.291Z,5.09
2022-11-27T02:42:38.905Z,4.72
2022-11-27T02:47:49.313Z,4.71
2022-11-27T02:52:58.553Z,5.11
2022-11-27T02:58:06.580Z,4.95
2022-11-27T03:03:22.846Z,4.73
2022-11-27T03:08:36.323Z,5.00
2022-11-27T03:13:45.144Z,5.24
2022-11-27T03:19:01.707Z,4.96
2022-11-27T03:24:07.590Z,4.96
2022-11-27T03:29:15.367Z,4.88
2022-11-27T03:34:23.435Z,4.82
2022-11-27T03:39:29.600Z,4.96
2022-11-27T03:44:42.361Z,4.91
2022-11-27T03:50:05.829Z,4.71
2022-11-27T03:55:15.404Z,4.54
2022-11-27T04:00:20.961Z,4.57
2022-11-27T04:05:28.811Z,4.61
2022-11-27T04:10:34.245Z,4.29
2022-11-27T04:15:39.241Z,4.64
2022-11-27T04:20:47.234Z,4.34
2022-11-27T04:25:52.366Z,3.83
2022-11-27T04:30:57.795Z,4.00
2022-11-27T04:36:05.485Z,3.82
2022-11-27T04:41:10.588Z,3.53
2022-11-27T04:46:15.639Z,3.68
2022-11-27T04:51:25.492Z,3.50
2022-11-27T04:56:30.467Z,3.65
2022-11-27T05:01:35.631Z,3.51
2022-11-27T05:06:43.183Z,3.59
2022-11-27T05:11:48.406Z,3.41
2022-11-27T05:16:54.854Z,3.36
2022-11-27T05:22:02.522Z,2.94
2022-11-27T05:27:07.374Z,2.81
2022-11-27T05:32:12.285Z,2.75
2022-11-27T05:37:21.073Z,2.80
2022-11-27T05:42:26.126Z,2.34
2022-11-27T05:47:31.176Z,2.43
2022-11-27T05:52:38.790Z,2.30
2022-11-27T05:57:43.693Z,2.30
2022-11-27T06:02:48.790Z,2.21
2022-11-27T06:07:56.441Z,2.26
2022-11-27T06:13:01.514Z,2.28
2022-11-27T06:18:06.658Z,2.37
2022-11-27T06:23:14.216Z,2.40
2022-11-27T06:28:20.345Z,2.32
2022-11-27T06:33:25.451Z,2.22
2022-11-27T06:38:35.051Z,2.28
2022-11-27T06:43:44.335Z,1.97
2022-11-27T06:48:51.833Z,2.00
2022-11-27T06:54:00.732Z,2.27
2022-11-27T06:59:05.719Z,2.35
2022-11-27T07:04:13.353Z,2.25
2022-11-27T07:09:22.613Z,2.16
2022-11-27T07:14:27.627Z,2.22
2022-11-27T07:19:32.681Z,2.23
2022-11-27T07:24:44.158Z,2.43
2022-11-27T07:29:53.984Z,2.55
2022-11-27T07:34:59.188Z,2.96
2022-11-27T07:40:09.895Z,3.22
2022-11-27T07:45:15.018Z,3.32
2022-11-27T07:50:23.357Z,3.46
2022-11-27T07:55:31.108Z,3.14
2022-11-27T08:00:36.679Z,3.13
2022-11-27T08:05:42.635Z,3.23
2022-11-27T08:10:51.564Z,3.26
2022-11-27T08:15:58.880Z,3.42
2022-11-27T08:21:06.032Z,3.38
2022-11-27T08:26:15.808Z,3.45
2022-11-27T08:31:22.763Z,3.67
2022-11-27T08:36:29.720Z,3.72
2022-11-27T08:41:38.348Z,3.86
2022-11-27T08:46:43.423Z,4.10
2022-11-27T08:51:48.394Z,4.10
2022-11-27T08:57:03.426Z,4.38
2022-11-27T09:02:11.887Z,4.56
2022-11-27T09:07:18.615Z,4.71
2022-11-27T09:12:30.937Z,4.84
2022-11-27T09:17:37.076Z,5.11
2022-11-27T09:22:42.097Z,5.34
2022-11-27T09:27:52.673Z,5.51
2022-11-27T09:32:57.797Z,5.82
2022-11-27T09:38:02.795Z,6.07
2022-11-27T09:43:14.375Z,5.94
2022-11-27T09:48:26.346Z,6.01
2022-11-27T09:53:37.029Z,6.15
2022-11-27T09:58:56.768Z,6.29
2022-11-27T10:04:06.701Z,6.25
2022-11-27T10:09:24.113Z,6.43
2022-11-27T10:14:46.451Z,6.63
2022-11-27T10:20:02.512Z,6.74
2022-11-27T10:25:21.062Z,6.79
2022-11-27T10:30:31.455Z,6.92
2022-11-27T10:35:39.936Z,6.97
2022-11-27T10:40:52.214Z,7.05
2022-11-27T10:46:08.503Z,7.49
2022-11-27T10:51:18.697Z,7.51
2022-11-27T10:56:45.348Z,7.91
2022-11-27T11:01:57.911Z,7.96
2022-11-27T11:07:04.696Z,8.22
2022-11-27T11:12:10.956Z,8.36
2022-11-27T11:17:21.407Z,8.51
2022-11-27T11:22:27.269Z,8.52
2022-11-27T11:27:33.939Z,8.91
2022-11-27T11:32:42.907Z,8.77
2022-11-27T11:37:51.425Z,9.14
2022-11-27T11:42:59.203Z,9.13
2022-11-27T11:48:27.541Z,9.14
2022-11-27T11:53:39.445Z,8.57
2022-11-27T11:59:00.945Z,8.65
2022-11-27T12:04:27.794Z,8.02
2022-11-27T12:09:50.226Z,7.53
2022-11-27T12:15:02.281Z,7.76
2022-11-27T12:20:21.574Z,8.27
2022-11-27T12:25:34.014Z,8.33
2022-11-27T12:30:48.474Z,8.68
2022-11-27T12:36:08.017Z,8.61
2022-11-27T12:41:35.370Z,8.93
2022-11-27T12:46:51.645Z,8.49
2022-11-27T12:52:05.538Z,8.87
2022-11-27T12:57:18.266Z,8.24
2022-11-27T13:02:31.456Z,8.27
2022-11-27T13:07:49.218Z,8.25
2022-11-27T13:13:08.044Z,8.53
2022-11-27T13:18:21.775Z,8.08
2022-11-27T13:23:36.141Z,7.92
2022-11-27T13:28:47.054Z,7.78
2022-11-27T13:33:53.898Z,7.80
2022-11-27T13:39:05.423Z,7.68
2022-11-27T13:44:25.890Z,7.54
2022-11-27T13:49:34.043Z,7.18
2022-11-27T13:54:43.232Z,6.94
2022-11-27T13:59:59.556Z,6.83
2022-11-27T14:05:05.581Z,6.98
2022-11-27T14:10:18.978Z,6.80
2022-11-27T14:15:27.520Z,6.86
2022-11-27T14:20:38.000Z,6.77
2022-11-27T14:25:45.692Z,6.27
2022-11-27T14:30:53.220Z,6.07
2022-11-27T14:36:02.464Z,6.00
2022-11-27T14:41:18.410Z,5.82
2022-11-27T14:46:26.733Z,5.62
2022-11-27T14:51:35.309Z,5.62
2022-11-27T14:56:46.322Z,5.41
2022-11-27T15:02:03.131Z,5.36
2022-11-27T15:07:15.739Z,5.34
2022-11-27T15:12:26.309Z,5.17
2022-11-27T15:17:33.974Z,5.28
2022-11-27T15:22:39.228Z,5.15
2022-11-27T15:27:51.009Z,5.05
2022-11-27T15:32:57.004Z,5.03
2022-11-27T15:38:05.682Z,4.82
2022-11-27T15:43:17.292Z,4.80
2022-11-27T15:48:27.666Z,4.71
2022-11-27T15:53:32.829Z,4.60
2022-11-27T15:58:41.756Z,4.62
2022-11-27T16:03:47.830Z,4.42
2022-11-27T16:08:57.214Z,4.53
2022-11-27T16:14:07.644Z,4.42
2022-11-27T16:19:14.930Z,4.42
2022-11-27T16:24:23.708Z,4.37
2022-11-27T16:29:32.001Z,4.28
2022-11-27T16:34:37.047Z,4.31
2022-11-27T16:39:42.516Z,4.33
2022-11-27T16:44:50.270Z,4.38
2022-11-27T16:49:55.659Z,4.43
2022-11-27T16:55:00.764Z,4.37
2022-11-27T17:00:10.527Z,4.37
2022-11-27T17:05:15.560Z,4.40
2022-11-27T17:10:29.711Z,4.39
2022-11-27T17:15:40.741Z,4.38
2022-11-27T17:20:46.872Z,4.38
2022-11-27T17:25:55.276Z,4.26
2022-11-27T17:31:03.576Z,4.31
2022-11-27T17:36:09.713Z,4.06
2022-11-27T17:41:16.353Z,4.09
2022-11-27T17:46:27.523Z,3.98
2022-11-27T17:51:35.565Z,4.01
2022-11-27T17:56:40.504Z,4.01
2022-11-27T18:01:53.415Z,3.98
2022-11-27T18:07:00.499Z,3.91
2022-11-27T18:12:09.219Z,3.91
2022-11-27T18:17:18.252Z,3.80
2022-11-27T18:22:24.377Z,3.78
2022-11-27T18:27:29.442Z,3.73
2022-11-27T18:32:38.899Z,3.55
2022-11-27T18:37:43.937Z,3.55
2022-11-27T18:42:49.011Z,3.45
2022-11-27T18:47:57.257Z,3.60
2022-11-27T18:53:04.880Z,3.59
2022-11-27T18:58:12.903Z,3.59
2022-11-27T19:03:21.223Z,3.71
2022-11-27T19:08:26.916Z,3.77
2022-11-27T19:13:33.802Z,3.73
2022-11-27T19:18:43.496Z,3.70
2022-11-27T19:23:49.424Z,3.79
2022-11-27T19:28:55.761Z,3.86
2022-11-27T19:34:06.390Z,3.75
2022-11-27T19:39:17.222Z,3.77
2022-11-27T19:44:22.835Z,3.82
2022-11-27T19:49:32.787Z,3.76
2022-11-27T19:54:39.240Z,3.68
2022-11-27T19:59:45.512Z,3.85
2022-11-27T20:04:55.833Z,3.75
2022-11-27T20:10:01.942Z,3.66
2022-11-27T20:15:09.181Z,3.68
2022-11-27T20:20:18.824Z,3.54
2022-11-27T20:25:27.601Z,3.60
2022-11-27T20:30:34.556Z,3.51
2022-11-27T20:35:47.002Z,3.54
2022-11-27T20:40:52.754Z,3.42
2022-11-27T20:46:01.311Z,3.41
2022-11-27T20:51:13.923Z,3.46
2022-11-27T20:56:21.409Z,3.45
2022-11-27T21:01:31.102Z,3.58
2022-11-27T21:06:43.665Z,3.53
2022-11-27T21:11:54.575Z,3.61
2022-11-27T21:17:04.592Z,3.57
2022-11-27T21:22:13.540Z,3.57
2022-11-27T21:27:18.759Z,3.51
2022-11-27T21:32:23.968Z,3.54
2022-11-27T21:37:32.114Z,3.57
2022-11-27T21:42:41.561Z,3.57
2022-11-27T21:47:49.227Z,3.38
2022-11-27T21:52:57.869Z,3.36
2022-11-27T21:58:02.822Z,3.23
2022-11-27T22:03:09.960Z,3.23
2022-11-27T22:08:17.558Z,3.28
2022-11-27T22:13:22.832Z,3.22
2022-11-27T22:18:28.376Z,3.28
2022-11-27T22:23:36.962Z,3.25
2022-11-27T22:28:42.432Z,3.29
2022-11-27T22:33:48.912Z,3.28
2022-11-27T22:39:01.318Z,3.20
2022-11-27T22:44:08.581Z,3.16
2022-11-27T22:49:15.285Z,3.11
2022-11-27T22:54:24.597Z,3.14
2022-11-27T22:59:32.834Z,3.19
2022-11-27T23:04:41.057Z,3.10
2022-11-27T23:09:48.801Z,3.10
2022-11-27T23:14:53.787Z,3.03
2022-11-27T23:19:58.755Z,3.11
2022-11-27T23:25:06.422Z,3.25
2022-11-27T23:30:12.806Z,3.20
2022-11-27T23:35:17.786Z,3.13
2022-11-27T23:40:25.317Z,3.17
2022-11-27T23:45:30.363Z,3.21
2022-11-27T23:50:35.534Z,3.18
2022-11-27T23:55:43.337Z,3.15
